Adele — 9HA2408 — position and weather

sailwx.info

Track history (hours):
 
Tides and Currents Weather Stations Pressure Air Temp Water Temp Dewpoint Dewpoint Depression Visibility Wind Speed Wind Dir Waves Ship Positions

Adele

Last reported at 2017-Sep-25 01:00 UTC. Time now 2017-Sep-25 01:11 UTC.
Position N 37°54' E 023°33'.

Length 88 m; draft 4.8 m.

Type: Tanker. MMSI: 248551000.

Date/timePositionNaut miles runAvg speedWind from/ knotsBaromVisibWave heightAir tempDewpointWater temp
2017-Sep-25 01:00N 37°54' E 023°33'0 0.0
2017-Sep-25 00:30N 37°54' E 023°33'0 0.0
2017-Sep-25 00:00N 37°54' E 023°33'0 0.0
2017-Sep-24 23:30N 37°54' E 023°33'0 0.0
2017-Sep-24 23:00N 37°54' E 023°33'0 0.0
2017-Sep-24 22:30N 37°54' E 023°33'0 0.1
2017-Sep-24 22:00N 37°54' E 023°33'2 3.6
2017-Sep-24 21:30N 37°53' E 023°31'4 8.2
2017-Sep-24 21:01N 37°51' E 023°27'4 8.4
2017-Sep-24 20:30N 37°52' E 023°21'4 8.1
2017-Sep-24 20:00N 37°53' E 023°17'4 8.2
2017-Sep-24 19:31N 37°54' E 023°11'4 8.0
2017-Sep-24 19:01N 37°54' E 023°06'1 2.3
2017-Sep-24 18:30N 37°55' E 023°05'0 0.0
2017-Sep-24 18:00N 37°55' E 023°05'0 0.0
2017-Sep-24 17:30N 37°55' E 023°05'0 0.0
2017-Sep-24 17:00N 37°55' E 023°05'0 0.0
2017-Sep-24 16:30N 37°55' E 023°05'0 0.0
2017-Sep-24 16:00N 37°55' E 023°05'0 0.0
2017-Sep-24 15:30N 37°55' E 023°05'0 0.0
2017-Sep-24 15:00N 37°55' E 023°05'0 0.0
2017-Sep-24 14:30N 37°55' E 023°05'0 0.0
2017-Sep-24 14:00N 37°55' E 023°05'0 0.0
2017-Sep-24 13:30N 37°55' E 023°05'0 0.0
2017-Sep-24 13:00N 37°55' E 023°05'0 0.0
2017-Sep-24 12:30N 37°55' E 023°05'0 0.0
2017-Sep-24 12:00N 37°55' E 023°05'0 0.0
2017-Sep-24 11:30N 37°55' E 023°05'0 0.0
2017-Sep-24 11:00N 37°55' E 023°05'0 0.0
2017-Sep-24 10:30N 37°55' E 023°05'0 0.0
2017-Sep-24 10:00N 37°55' E 023°05'0 0.0
2017-Sep-24 09:30N 37°55' E 023°05'0 0.0
2017-Sep-24 09:00N 37°55' E 023°05'0 0.0
2017-Sep-24 08:30N 37°55' E 023°05'0 0.0
2017-Sep-24 08:00N 37°55' E 023°05'0 0.0
2017-Sep-24 07:30N 37°55' E 023°05'0 0.0
2017-Sep-24 06:27N 37°55' E 023°05'0 0.0
2017-Sep-24 06:00N 37°55' E 023°05'0 0.0
2017-Sep-24 05:30N 37°55' E 023°05'0 0.0
2017-Sep-23 20:40N 37°55' E 023°05'0 0.1
2017-Sep-23 20:30N 37°55' E 023°05'0 0.0
2017-Sep-23 20:00N 37°55' E 023°05'23 0.6
2017-Sep-22 01:58N 37°57' E 023°35'0 0.0
2017-Sep-22 01:28N 37°57' E 023°35'0 0.0
2017-Sep-22 00:58N 37°57' E 023°35'0 0.0
2017-Sep-22 00:28N 37°57' E 023°35'0 0.0
2017-Sep-21 23:58N 37°57' E 023°35'0 0.0
2017-Sep-21 23:28N 37°57' E 023°35'0 0.0
2017-Sep-21 22:58N 37°57' E 023°35'0 0.0
2017-Sep-21 22:28N 37°57' E 023°35'0 0.0
2017-Sep-21 21:58N 37°57' E 023°35'0 0.0
2017-Sep-21 21:28N 37°57' E 023°35'0 0.0
2017-Sep-21 20:58N 37°57' E 023°35'0 0.0
2017-Sep-21 20:28N 37°57' E 023°35'0 0.0
2017-Sep-21 19:58N 37°57' E 023°35'0 0.0
2017-Sep-21 19:28N 37°57' E 023°35'0 0.0
2017-Sep-21 18:58N 37°57' E 023°35'0 0.0
2017-Sep-21 18:28N 37°57' E 023°35'0 0.0
2017-Sep-21 17:58N 37°57' E 023°35'0 0.0
2017-Sep-21 17:28N 37°57' E 023°35'0 0.0
2017-Sep-21 16:58N 37°57' E 023°35'0 0.0
2017-Sep-21 16:28N 37°57' E 023°35'0 0.0
2017-Sep-21 15:58N 37°57' E 023°35'0 0.0
2017-Sep-21 15:28N 37°57' E 023°35'0 0.0
2017-Sep-21 14:58N 37°57' E 023°35'0 0.0
2017-Sep-21 14:28N 37°57' E 023°35'0 0.0
2017-Sep-21 13:58N 37°57' E 023°35'0 0.0
2017-Sep-21 13:28N 37°57' E 023°35'0 0.0
2017-Sep-21 12:58N 37°57' E 023°35'0 0.0
2017-Sep-21 12:28N 37°57' E 023°35'0 0.0
2017-Sep-21 11:58N 37°57' E 023°35'0 0.0
2017-Sep-21 11:28N 37°57' E 023°35'0 0.0
2017-Sep-21 10:58N 37°57' E 023°35'0 0.0
2017-Sep-21 10:28N 37°57' E 023°35'0 0.0
2017-Sep-21 09:58N 37°57' E 023°35'0 0.0
2017-Sep-21 09:28N 37°57' E 023°35'0 0.0
2017-Sep-21 08:58N 37°57' E 023°35'0 0.0
2017-Sep-21 08:28N 37°57' E 023°35'0 0.0
2017-Sep-21 07:58N 37°57' E 023°35'0 0.0
2017-Sep-21 07:28N 37°57' E 023°35'0 0.0
2017-Sep-21 06:58N 37°57' E 023°35'0 0.0
2017-Sep-21 06:28N 37°57' E 023°35'0 0.0
2017-Sep-21 05:58N 37°57' E 023°35'0 0.0
2017-Sep-21 05:28N 37°57' E 023°35'0 0.0
2017-Sep-21 04:58N 37°57' E 023°35'0 0.0
2017-Sep-21 04:28N 37°57' E 023°35'0 0.0
2017-Sep-21 03:58N 37°57' E 023°35'0 0.0
2017-Sep-21 03:28N 37°57' E 023°35'0 0.0
2017-Sep-21 02:58N 37°57' E 023°35'0 0.0
2017-Sep-21 02:28N 37°57' E 023°35'0 0.0
2017-Sep-21 01:58N 37°57' E 023°35'0 0.0
2017-Sep-21 01:28N 37°57' E 023°35'0 0.0
2017-Sep-21 00:55N 37°57' E 023°35'0 0.0
2017-Sep-21 00:28N 37°57' E 023°35'0 0.0
2017-Sep-20 23:58N 37°57' E 023°35'0 0.0
2017-Sep-20 23:28N 37°57' E 023°35'0 0.0
2017-Sep-20 22:58N 37°57' E 023°35'0 0.0
2017-Sep-20 22:28N 37°57' E 023°35'0 0.0
2017-Sep-20 21:58N 37°57' E 023°35'0 0.0
2017-Sep-20 21:28N 37°57' E 023°35'0 0.0
2017-Sep-20 20:58N 37°57' E 023°35'0 0.0
2017-Sep-20 20:28N 37°57' E 023°35'0 0.0
2017-Sep-20 19:58N 37°57' E 023°35'0 0.0
2017-Sep-20 19:28N 37°57' E 023°35'0 0.0
2017-Sep-20 18:58N 37°57' E 023°35'0 0.0
2017-Sep-20 18:28N 37°57' E 023°35'0 0.0
2017-Sep-20 17:58N 37°57' E 023°35'0 0.0
2017-Sep-20 17:31N 37°57' E 023°35'0 0.0
2017-Sep-20 16:58N 37°57' E 023°35'0 0.0
2017-Sep-20 16:28N 37°57' E 023°35'0 0.0
2017-Sep-20 15:58N 37°57' E 023°35'0 0.0
2017-Sep-20 15:28N 37°57' E 023°35'0 0.0
2017-Sep-20 14:58N 37°57' E 023°35'0 0.0
2017-Sep-20 13:58N 37°57' E 023°35'0 0.0
2017-Sep-20 13:28N 37°57' E 023°35'0 0.0
2017-Sep-20 12:58N 37°57' E 023°35'0 0.4
2017-Sep-20 12:31N 37°57' E 023°35'2 4.1
2017-Sep-20 12:00N 37°55' E 023°35'4 7.3
2017-Sep-20 11:30N 37°52' E 023°33'4 8.2
2017-Sep-20 11:00N 37°50' E 023°29'4 8.9
2017-Sep-20 10:31N 37°51' E 023°23'5 9.0
2017-Sep-20 10:00N 37°52' E 023°18'5 9.4
2017-Sep-20 09:30N 37°53' E 023°12'5 8.9
2017-Sep-20 09:00N 37°54' E 023°06'1 0.0
2017-Sep-19 11:00N 37°55' E 023°05'1 1.7
2017-Sep-19 10:29N 37°55' E 023°06'0 0.0
2017-Sep-19 10:00N 37°55' E 023°07'0 0.0
2017-Sep-19 09:29N 37°55' E 023°07'2 3.2
2017-Sep-19 09:00N 37°54' E 023°08'4 8.3
2017-Sep-19 08:30N 37°53' E 023°13'4 8.3
2017-Sep-19 08:00N 37°52' E 023°18'4 8.6
2017-Sep-19 07:30N 37°51' E 023°24'4 8.8
2017-Sep-19 07:01N 37°50' E 023°29'4 7.8
2017-Sep-19 06:30N 37°52' E 023°33'5 9.4
2017-Sep-19 06:01N 37°56' E 023°36'2 3.2
2017-Sep-19 05:30N 37°57' E 023°35'0 0.0
2017-Sep-19 04:59N 37°57' E 023°35'0 0.0
2017-Sep-19 04:29N 37°57' E 023°35'0 0.0
2017-Sep-19 03:59N 37°57' E 023°35'0 0.0
2017-Sep-19 03:29N 37°57' E 023°35'0 0.0
2017-Sep-19 02:59N 37°57' E 023°35'0 0.0
2017-Sep-19 02:29N 37°57' E 023°35'0 0.0
2017-Sep-19 01:57N 37°57' E 023°35'0 0.0
2017-Sep-19 01:29N 37°57' E 023°35'0 0.0
2017-Sep-19 01:00N 37°57' E 023°35'0 0.0
2017-Sep-19 00:30N 37°57' E 023°35'0 0.0
2017-Sep-18 23:59N 37°57' E 023°35'0 0.0
2017-Sep-18 23:29N 37°57' E 023°35'0 0.0
2017-Sep-18 22:59N 37°57' E 023°35'0 0.0
2017-Sep-18 22:29N 37°57' E 023°35'0 0.0
2017-Sep-18 22:00N 37°57' E 023°35'0 0.0
2017-Sep-18 21:29N 37°57' E 023°35'0 0.0
2017-Sep-18 20:59N 37°57' E 023°35'0 0.0
2017-Sep-18 20:29N 37°57' E 023°35'0 0.0
2017-Sep-18 19:59N 37°57' E 023°35'0 0.0
2017-Sep-18 19:30N 37°57' E 023°35'0 0.0
2017-Sep-18 18:59N 37°57' E 023°35'0 0.0
2017-Sep-18 18:29N 37°57' E 023°35'0 0.0
2017-Sep-18 17:59N 37°57' E 023°35'0 0.0
2017-Sep-18 17:29N 37°57' E 023°35'0 0.0
2017-Sep-18 16:59N 37°57' E 023°35'0 0.0
2017-Sep-18 16:29N 37°57' E 023°35'0 0.0
2017-Sep-18 15:59N 37°57' E 023°35'0 0.0
2017-Sep-18 15:29N 37°57' E 023°35'0 0.0
2017-Sep-18 14:59N 37°57' E 023°35'0 0.0
2017-Sep-18 14:29N 37°57' E 023°35'0 0.0
2017-Sep-18 13:56N 37°57' E 023°35'0 0.0
2017-Sep-18 13:29N 37°57' E 023°35'0 0.0
2017-Sep-18 12:59N 37°57' E 023°35'0 0.0
2017-Sep-18 12:20N 37°57' E 023°35'0 0.0
2017-Sep-18 11:56N 37°57' E 023°35'0 0.0
2017-Sep-18 11:20N 37°57' E 023°35'0 0.0
2017-Sep-18 10:59N 37°57' E 023°35'0 0.0
2017-Sep-18 10:26N 37°57' E 023°35'0 0.0
2017-Sep-18 09:59N 37°57' E 023°35'0 0.0
2017-Sep-18 09:29N 37°57' E 023°35'0 0.0
2017-Sep-18 08:53N 37°57' E 023°35'0 0.0
2017-Sep-18 08:29N 37°57' E 023°35'0 0.0
2017-Sep-18 07:59N 37°57' E 023°35'0 0.0
2017-Sep-18 07:29N 37°57' E 023°35'0 0.0
2017-Sep-18 06:59N 37°57' E 023°35'0 0.0
2017-Sep-18 06:29N 37°57' E 023°35'0 0.0
2017-Sep-18 05:59N 37°57' E 023°35'0 0.0
2017-Sep-18 05:29N 37°57' E 023°35'0 0.0
2017-Sep-18 04:59N 37°57' E 023°35'0 0.0
2017-Sep-18 04:26N 37°57' E 023°35'0 0.0
2017-Sep-18 03:59N 37°57' E 023°35'0 0.0
2017-Sep-18 03:29N 37°57' E 023°35'0 0.0
2017-Sep-18 02:59N 37°57' E 023°35'0 0.0
2017-Sep-18 02:29N 37°57' E 023°35'0 0.0
2017-Sep-18 01:56N 37°57' E 023°35'0 0.0
2017-Sep-18 01:29N 37°57' E 023°35'0 0.0
2017-Sep-18 00:59N 37°57' E 023°35'0 0.0
2017-Sep-18 00:29N 37°57' E 023°35'0 0.0
2017-Sep-17 23:56N 37°57' E 023°35'0 0.0
2017-Sep-17 23:29N 37°57' E 023°35'0 0.0
2017-Sep-17 22:59N 37°57' E 023°35'0 0.0
2017-Sep-17 22:29N 37°57' E 023°35'0 0.0
2017-Sep-17 21:59N 37°57' E 023°35'0 0.0
2017-Sep-17 21:26N 37°57' E 023°35'0 0.0
2017-Sep-17 20:56N 37°57' E 023°35'0 0.0
2017-Sep-17 20:29N 37°57' E 023°35'0 0.0
2017-Sep-17 19:53N 37°57' E 023°35'0 0.0
2017-Sep-17 19:29N 37°57' E 023°35'0 0.0
2017-Sep-17 18:56N 37°57' E 023°35'0 0.0
2017-Sep-17 18:29N 37°57' E 023°35'0 0.0
2017-Sep-17 17:59N 37°57' E 023°35'0 0.0
2017-Sep-17 17:29N 37°57' E 023°35'0 0.0
2017-Sep-17 16:59N 37°57' E 023°35'0 0.0
2017-Sep-17 16:29N 37°57' E 023°35'0 0.0
2017-Sep-17 15:56N 37°57' E 023°35'0 0.0
2017-Sep-17 15:29N 37°57' E 023°35'0 0.0
2017-Sep-17 14:59N 37°57' E 023°35'0 0.0
2017-Sep-17 14:29N 37°57' E 023°35'0 0.0
2017-Sep-17 13:59N 37°57' E 023°35'0 0.0
2017-Sep-17 13:29N 37°57' E 023°35'0 0.0
2017-Sep-17 12:59N 37°57' E 023°35'0 0.0
2017-Sep-17 12:29N 37°57' E 023°35'0 0.0
2017-Sep-17 11:59N 37°57' E 023°35'0 0.0
2017-Sep-17 11:29N 37°57' E 023°35'0 0.0
2017-Sep-17 10:59N 37°57' E 023°35'0 0.0
2017-Sep-17 10:29N 37°57' E 023°35'0 0.0
2017-Sep-17 09:59N 37°57' E 023°35'0 0.0
2017-Sep-17 09:29N 37°57' E 023°35'0 0.0
2017-Sep-17 08:56N 37°57' E 023°35'0 0.0
2017-Sep-17 08:26N 37°57' E 023°35'0 0.0
2017-Sep-17 07:59N 37°57' E 023°35'0 0.0
2017-Sep-17 07:29N 37°57' E 023°35'0 0.0
2017-Sep-17 06:59N 37°57' E 023°35'0 0.0
2017-Sep-17 06:29N 37°57' E 023°35'0 0.5
2017-Sep-17 06:00N 37°57' E 023°35'3 5.7
2017-Sep-17 05:30N 37°54' E 023°34'1 1.3
2017-Sep-17 05:00N 37°54' E 023°33'0 0.0
2017-Sep-17 04:30N 37°54' E 023°33'0 0.0
2017-Sep-17 04:00N 37°54' E 023°33'0 0.0
2017-Sep-17 03:30N 37°54' E 023°33'0 0.1
2017-Sep-17 03:00N 37°54' E 023°33'0 0.0
2017-Sep-17 02:30N 37°54' E 023°33'0 0.0
2017-Sep-17 02:00N 37°54' E 023°33'0 0.0
2017-Sep-17 01:30N 37°54' E 023°33'0 0.0
2017-Sep-17 01:00N 37°54' E 023°33'0 0.0
2017-Sep-17 00:30N 37°54' E 023°33'0 0.1
2017-Sep-17 00:00N 37°54' E 023°33'0 0.0
2017-Sep-16 23:30N 37°54' E 023°33'0 0.0
2017-Sep-16 23:00N 37°54' E 023°33'0 0.0
2017-Sep-16 22:30N 37°54' E 023°33'0 0.0
2017-Sep-16 22:00N 37°54' E 023°33'0 0.0
2017-Sep-16 21:30N 37°54' E 023°33'0 0.0
2017-Sep-16 21:00N 37°54' E 023°33'0 0.0
2017-Sep-16 20:30N 37°54' E 023°33'0 0.0
2017-Sep-16 20:00N 37°54' E 023°33'0 0.0
2017-Sep-16 19:30N 37°54' E 023°33'0 0.0
2017-Sep-16 19:00N 37°54' E 023°33'0 0.0
2017-Sep-16 18:30N 37°54' E 023°33'0 0.0
2017-Sep-16 18:00N 37°54' E 023°33'0 0.0
2017-Sep-16 17:27N 37°54' E 023°33'0 0.0
2017-Sep-16 17:00N 37°54' E 023°33'0 0.0
2017-Sep-16 16:30N 37°54' E 023°33'0 0.0
2017-Sep-16 16:00N 37°54' E 023°33'0 0.0
2017-Sep-16 15:30N 37°54' E 023°33'0 0.2
2017-Sep-16 15:00N 37°54' E 023°33'0 0.0
2017-Sep-16 14:30N 37°54' E 023°33'0 0.1
2017-Sep-16 14:00N 37°54' E 023°33'0 0.0
2017-Sep-16 13:30N 37°54' E 023°33'0 0.1
2017-Sep-16 13:00N 37°54' E 023°33'0 0.0
2017-Sep-16 12:30N 37°54' E 023°33'0 0.0
2017-Sep-16 12:00N 37°54' E 023°33'0 0.1
2017-Sep-16 11:30N 37°54' E 023°33'0 0.0
2017-Sep-16 11:00N 37°54' E 023°33'0 0.0
2017-Sep-16 10:30N 37°54' E 023°33'0 0.0
2017-Sep-16 10:00N 37°54' E 023°33'0 0.0
2017-Sep-16 09:30N 37°54' E 023°33'0 0.1
2017-Sep-16 09:00N 37°54' E 023°33'0 0.1
2017-Sep-16 08:30N 37°54' E 023°33'3 5.9
2017-Sep-16 08:00N 37°53' E 023°30'4 8.4
2017-Sep-16 07:31N 37°52' E 023°25'4 9.0
2017-Sep-16 07:00N 37°52' E 023°19'5 9.0
2017-Sep-16 06:30N 37°53' E 023°13'4 8.8
2017-Sep-16 06:00N 37°54' E 023°08'  
Track history (hours):
 
Tides and Currents Weather Stations Pressure Air Temp Water Temp Dewpoint Dewpoint Depression Visibility Wind Speed Wind Dir Waves Ship Positions

Adele

Last reported at 2017-Sep-25 01:00 UTC. Time now 2017-Sep-25 01:11 UTC.
Position N 37°54' E 023°33'.

Length 88 m; draft 4.8 m.

Type: Tanker. MMSI: 248551000.

Date/timePositionNaut miles runAvg speedWind from/ knotsBaromVisibWave heightAir tempDewpointWater temp
2017-Sep-25 01:00N 37°54' E 023°33'0 0.0
2017-Sep-25 00:30N 37°54' E 023°33'0 0.0
2017-Sep-25 00:00N 37°54' E 023°33'0 0.0
2017-Sep-24 23:30N 37°54' E 023°33'0 0.0
2017-Sep-24 23:00N 37°54' E 023°33'0 0.0
2017-Sep-24 22:30N 37°54' E 023°33'0 0.1
2017-Sep-24 22:00N 37°54' E 023°33'2 3.6
2017-Sep-24 21:30N 37°53' E 023°31'4 8.2
2017-Sep-24 21:01N 37°51' E 023°27'4 8.4
2017-Sep-24 20:30N 37°52' E 023°21'4 8.1
2017-Sep-24 20:00N 37°53' E 023°17'4 8.2
2017-Sep-24 19:31N 37°54' E 023°11'4 8.0
2017-Sep-24 19:01N 37°54' E 023°06'1 2.3
2017-Sep-24 18:30N 37°55' E 023°05'0 0.0
2017-Sep-24 18:00N 37°55' E 023°05'0 0.0
2017-Sep-24 17:30N 37°55' E 023°05'0 0.0
2017-Sep-24 17:00N 37°55' E 023°05'0 0.0
2017-Sep-24 16:30N 37°55' E 023°05'0 0.0
2017-Sep-24 16:00N 37°55' E 023°05'0 0.0
2017-Sep-24 15:30N 37°55' E 023°05'0 0.0
2017-Sep-24 15:00N 37°55' E 023°05'0 0.0
2017-Sep-24 14:30N 37°55' E 023°05'0 0.0
2017-Sep-24 14:00N 37°55' E 023°05'0 0.0
2017-Sep-24 13:30N 37°55' E 023°05'0 0.0
2017-Sep-24 13:00N 37°55' E 023°05'0 0.0
2017-Sep-24 12:30N 37°55' E 023°05'0 0.0
2017-Sep-24 12:00N 37°55' E 023°05'0 0.0
2017-Sep-24 11:30N 37°55' E 023°05'0 0.0
2017-Sep-24 11:00N 37°55' E 023°05'0 0.0
2017-Sep-24 10:30N 37°55' E 023°05'0 0.0
2017-Sep-24 10:00N 37°55' E 023°05'0 0.0
2017-Sep-24 09:30N 37°55' E 023°05'0 0.0
2017-Sep-24 09:00N 37°55' E 023°05'0 0.0
2017-Sep-24 08:30N 37°55' E 023°05'0 0.0
2017-Sep-24 08:00N 37°55' E 023°05'0 0.0
2017-Sep-24 07:30N 37°55' E 023°05'0 0.0
2017-Sep-24 06:27N 37°55' E 023°05'0 0.0
2017-Sep-24 06:00N 37°55' E 023°05'0 0.0
2017-Sep-24 05:30N 37°55' E 023°05'0 0.0
2017-Sep-23 20:40N 37°55' E 023°05'0 0.1
2017-Sep-23 20:30N 37°55' E 023°05'0 0.0
2017-Sep-23 20:00N 37°55' E 023°05'23 0.6
2017-Sep-22 01:58N 37°57' E 023°35'0 0.0
2017-Sep-22 01:28N 37°57' E 023°35'0 0.0
2017-Sep-22 00:58N 37°57' E 023°35'0 0.0
2017-Sep-22 00:28N 37°57' E 023°35'0 0.0
2017-Sep-21 23:58N 37°57' E 023°35'0 0.0
2017-Sep-21 23:28N 37°57' E 023°35'0 0.0
2017-Sep-21 22:58N 37°57' E 023°35'0 0.0
2017-Sep-21 22:28N 37°57' E 023°35'0 0.0
2017-Sep-21 21:58N 37°57' E 023°35'0 0.0
2017-Sep-21 21:28N 37°57' E 023°35'0 0.0
2017-Sep-21 20:58N 37°57' E 023°35'0 0.0
2017-Sep-21 20:28N 37°57' E 023°35'0 0.0
2017-Sep-21 19:58N 37°57' E 023°35'0 0.0
2017-Sep-21 19:28N 37°57' E 023°35'0 0.0
2017-Sep-21 18:58N 37°57' E 023°35'0 0.0
2017-Sep-21 18:28N 37°57' E 023°35'0 0.0
2017-Sep-21 17:58N 37°57' E 023°35'0 0.0
2017-Sep-21 17:28N 37°57' E 023°35'0 0.0
2017-Sep-21 16:58N 37°57' E 023°35'0 0.0
2017-Sep-21 16:28N 37°57' E 023°35'0 0.0
2017-Sep-21 15:58N 37°57' E 023°35'0 0.0
2017-Sep-21 15:28N 37°57' E 023°35'0 0.0
2017-Sep-21 14:58N 37°57' E 023°35'0 0.0
2017-Sep-21 14:28N 37°57' E 023°35'0 0.0
2017-Sep-21 13:58N 37°57' E 023°35'0 0.0
2017-Sep-21 13:28N 37°57' E 023°35'0 0.0
2017-Sep-21 12:58N 37°57' E 023°35'0 0.0
2017-Sep-21 12:28N 37°57' E 023°35'0 0.0
2017-Sep-21 11:58N 37°57' E 023°35'0 0.0
2017-Sep-21 11:28N 37°57' E 023°35'0 0.0
2017-Sep-21 10:58N 37°57' E 023°35'0 0.0
2017-Sep-21 10:28N 37°57' E 023°35'0 0.0
2017-Sep-21 09:58N 37°57' E 023°35'0 0.0
2017-Sep-21 09:28N 37°57' E 023°35'0 0.0
2017-Sep-21 08:58N 37°57' E 023°35'0 0.0
2017-Sep-21 08:28N 37°57' E 023°35'0 0.0
2017-Sep-21 07:58N 37°57' E 023°35'0 0.0
2017-Sep-21 07:28N 37°57' E 023°35'0 0.0
2017-Sep-21 06:58N 37°57' E 023°35'0 0.0
2017-Sep-21 06:28N 37°57' E 023°35'0 0.0
2017-Sep-21 05:58N 37°57' E 023°35'0 0.0
2017-Sep-21 05:28N 37°57' E 023°35'0 0.0
2017-Sep-21 04:58N 37°57' E 023°35'0 0.0
2017-Sep-21 04:28N 37°57' E 023°35'0 0.0
2017-Sep-21 03:58N 37°57' E 023°35'0 0.0
2017-Sep-21 03:28N 37°57' E 023°35'0 0.0
2017-Sep-21 02:58N 37°57' E 023°35'0 0.0
2017-Sep-21 02:28N 37°57' E 023°35'0 0.0
2017-Sep-21 01:58N 37°57' E 023°35'0 0.0
2017-Sep-21 01:28N 37°57' E 023°35'0 0.0
2017-Sep-21 00:55N 37°57' E 023°35'0 0.0
2017-Sep-21 00:28N 37°57' E 023°35'0 0.0
2017-Sep-20 23:58N 37°57' E 023°35'0 0.0
2017-Sep-20 23:28N 37°57' E 023°35'0 0.0
2017-Sep-20 22:58N 37°57' E 023°35'0 0.0
2017-Sep-20 22:28N 37°57' E 023°35'0 0.0
2017-Sep-20 21:58N 37°57' E 023°35'0 0.0
2017-Sep-20 21:28N 37°57' E 023°35'0 0.0
2017-Sep-20 20:58N 37°57' E 023°35'0 0.0
2017-Sep-20 20:28N 37°57' E 023°35'0 0.0
2017-Sep-20 19:58N 37°57' E 023°35'0 0.0
2017-Sep-20 19:28N 37°57' E 023°35'0 0.0
2017-Sep-20 18:58N 37°57' E 023°35'0 0.0
2017-Sep-20 18:28N 37°57' E 023°35'0 0.0
2017-Sep-20 17:58N 37°57' E 023°35'0 0.0
2017-Sep-20 17:31N 37°57' E 023°35'0 0.0
2017-Sep-20 16:58N 37°57' E 023°35'0 0.0
2017-Sep-20 16:28N 37°57' E 023°35'0 0.0
2017-Sep-20 15:58N 37°57' E 023°35'0 0.0
2017-Sep-20 15:28N 37°57' E 023°35'0 0.0
2017-Sep-20 14:58N 37°57' E 023°35'0 0.0
2017-Sep-20 13:58N 37°57' E 023°35'0 0.0
2017-Sep-20 13:28N 37°57' E 023°35'0 0.0
2017-Sep-20 12:58N 37°57' E 023°35'0 0.4
2017-Sep-20 12:31N 37°57' E 023°35'2 4.1
2017-Sep-20 12:00N 37°55' E 023°35'4 7.3
2017-Sep-20 11:30N 37°52' E 023°33'4 8.2
2017-Sep-20 11:00N 37°50' E 023°29'4 8.9
2017-Sep-20 10:31N 37°51' E 023°23'5 9.0
2017-Sep-20 10:00N 37°52' E 023°18'5 9.4
2017-Sep-20 09:30N 37°53' E 023°12'5 8.9
2017-Sep-20 09:00N 37°54' E 023°06'1 0.0
2017-Sep-19 11:00N 37°55' E 023°05'1 1.7
2017-Sep-19 10:29N 37°55' E 023°06'0 0.0
2017-Sep-19 10:00N 37°55' E 023°07'0 0.0
2017-Sep-19 09:29N 37°55' E 023°07'2 3.2
2017-Sep-19 09:00N 37°54' E 023°08'4 8.3
2017-Sep-19 08:30N 37°53' E 023°13'4 8.3
2017-Sep-19 08:00N 37°52' E 023°18'4 8.6
2017-Sep-19 07:30N 37°51' E 023°24'4 8.8
2017-Sep-19 07:01N 37°50' E 023°29'4 7.8
2017-Sep-19 06:30N 37°52' E 023°33'5 9.4
2017-Sep-19 06:01N 37°56' E 023°36'2 3.2
2017-Sep-19 05:30N 37°57' E 023°35'0 0.0
2017-Sep-19 04:59N 37°57' E 023°35'0 0.0
2017-Sep-19 04:29N 37°57' E 023°35'0 0.0
2017-Sep-19 03:59N 37°57' E 023°35'0 0.0
2017-Sep-19 03:29N 37°57' E 023°35'0 0.0
2017-Sep-19 02:59N 37°57' E 023°35'0 0.0
2017-Sep-19 02:29N 37°57' E 023°35'0 0.0
2017-Sep-19 01:57N 37°57' E 023°35'0 0.0
2017-Sep-19 01:29N 37°57' E 023°35'0 0.0
2017-Sep-19 01:00N 37°57' E 023°35'0 0.0
2017-Sep-19 00:30N 37°57' E 023°35'0 0.0
2017-Sep-18 23:59N 37°57' E 023°35'0 0.0
2017-Sep-18 23:29N 37°57' E 023°35'0 0.0
2017-Sep-18 22:59N 37°57' E 023°35'0 0.0
2017-Sep-18 22:29N 37°57' E 023°35'0 0.0
2017-Sep-18 22:00N 37°57' E 023°35'0 0.0
2017-Sep-18 21:29N 37°57' E 023°35'0 0.0
2017-Sep-18 20:59N 37°57' E 023°35'0 0.0
2017-Sep-18 20:29N 37°57' E 023°35'0 0.0
2017-Sep-18 19:59N 37°57' E 023°35'0 0.0
2017-Sep-18 19:30N 37°57' E 023°35'0 0.0
2017-Sep-18 18:59N 37°57' E 023°35'0 0.0
2017-Sep-18 18:29N 37°57' E 023°35'0 0.0
2017-Sep-18 17:59N 37°57' E 023°35'0 0.0
2017-Sep-18 17:29N 37°57' E 023°35'0 0.0
2017-Sep-18 16:59N 37°57' E 023°35'0 0.0
2017-Sep-18 16:29N 37°57' E 023°35'0 0.0
2017-Sep-18 15:59N 37°57' E 023°35'0 0.0
2017-Sep-18 15:29N 37°57' E 023°35'0 0.0
2017-Sep-18 14:59N 37°57' E 023°35'0 0.0
2017-Sep-18 14:29N 37°57' E 023°35'0 0.0
2017-Sep-18 13:56N 37°57' E 023°35'0 0.0
2017-Sep-18 13:29N 37°57' E 023°35'0 0.0
2017-Sep-18 12:59N 37°57' E 023°35'0 0.0
2017-Sep-18 12:20N 37°57' E 023°35'0 0.0
2017-Sep-18 11:56N 37°57' E 023°35'0 0.0
2017-Sep-18 11:20N 37°57' E 023°35'0 0.0
2017-Sep-18 10:59N 37°57' E 023°35'0 0.0
2017-Sep-18 10:26N 37°57' E 023°35'0 0.0
2017-Sep-18 09:59N 37°57' E 023°35'0 0.0
2017-Sep-18 09:29N 37°57' E 023°35'0 0.0
2017-Sep-18 08:53N 37°57' E 023°35'0 0.0
2017-Sep-18 08:29N 37°57' E 023°35'0 0.0
2017-Sep-18 07:59N 37°57' E 023°35'0 0.0
2017-Sep-18 07:29N 37°57' E 023°35'0 0.0
2017-Sep-18 06:59N 37°57' E 023°35'0 0.0
2017-Sep-18 06:29N 37°57' E 023°35'0 0.0
2017-Sep-18 05:59N 37°57' E 023°35'0 0.0
2017-Sep-18 05:29N 37°57' E 023°35'0 0.0
2017-Sep-18 04:59N 37°57' E 023°35'0 0.0
2017-Sep-18 04:26N 37°57' E 023°35'0 0.0
2017-Sep-18 03:59N 37°57' E 023°35'0 0.0
2017-Sep-18 03:29N 37°57' E 023°35'0 0.0
2017-Sep-18 02:59N 37°57' E 023°35'0 0.0
2017-Sep-18 02:29N 37°57' E 023°35'0 0.0
2017-Sep-18 01:56N 37°57' E 023°35'0 0.0
2017-Sep-18 01:29N 37°57' E 023°35'0 0.0
2017-Sep-18 00:59N 37°57' E 023°35'0 0.0
2017-Sep-18 00:29N 37°57' E 023°35'0 0.0
2017-Sep-17 23:56N 37°57' E 023°35'0 0.0
2017-Sep-17 23:29N 37°57' E 023°35'0 0.0
2017-Sep-17 22:59N 37°57' E 023°35'0 0.0
2017-Sep-17 22:29N 37°57' E 023°35'0 0.0
2017-Sep-17 21:59N 37°57' E 023°35'0 0.0
2017-Sep-17 21:26N 37°57' E 023°35'0 0.0
2017-Sep-17 20:56N 37°57' E 023°35'0 0.0
2017-Sep-17 20:29N 37°57' E 023°35'0 0.0
2017-Sep-17 19:53N 37°57' E 023°35'0 0.0
2017-Sep-17 19:29N 37°57' E 023°35'0 0.0
2017-Sep-17 18:56N 37°57' E 023°35'0 0.0
2017-Sep-17 18:29N 37°57' E 023°35'0 0.0
2017-Sep-17 17:59N 37°57' E 023°35'0 0.0
2017-Sep-17 17:29N 37°57' E 023°35'0 0.0
2017-Sep-17 16:59N 37°57' E 023°35'0 0.0
2017-Sep-17 16:29N 37°57' E 023°35'0 0.0
2017-Sep-17 15:56N 37°57' E 023°35'0 0.0
2017-Sep-17 15:29N 37°57' E 023°35'0 0.0
2017-Sep-17 14:59N 37°57' E 023°35'0 0.0
2017-Sep-17 14:29N 37°57' E 023°35'0 0.0
2017-Sep-17 13:59N 37°57' E 023°35'0 0.0
2017-Sep-17 13:29N 37°57' E 023°35'0 0.0
2017-Sep-17 12:59N 37°57' E 023°35'0 0.0
2017-Sep-17 12:29N 37°57' E 023°35'0 0.0
2017-Sep-17 11:59N 37°57' E 023°35'0 0.0
2017-Sep-17 11:29N 37°57' E 023°35'0 0.0
2017-Sep-17 10:59N 37°57' E 023°35'0 0.0
2017-Sep-17 10:29N 37°57' E 023°35'0 0.0
2017-Sep-17 09:59N 37°57' E 023°35'0 0.0
2017-Sep-17 09:29N 37°57' E 023°35'0 0.0
2017-Sep-17 08:56N 37°57' E 023°35'0 0.0
2017-Sep-17 08:26N 37°57' E 023°35'0 0.0
2017-Sep-17 07:59N 37°57' E 023°35'0 0.0
2017-Sep-17 07:29N 37°57' E 023°35'0 0.0
2017-Sep-17 06:59N 37°57' E 023°35'0 0.0
2017-Sep-17 06:29N 37°57' E 023°35'0 0.5
2017-Sep-17 06:00N 37°57' E 023°35'3 5.7
2017-Sep-17 05:30N 37°54' E 023°34'1 1.3
2017-Sep-17 05:00N 37°54' E 023°33'0 0.0
2017-Sep-17 04:30N 37°54' E 023°33'0 0.0
2017-Sep-17 04:00N 37°54' E 023°33'0 0.0
2017-Sep-17 03:30N 37°54' E 023°33'0 0.1
2017-Sep-17 03:00N 37°54' E 023°33'0 0.0
2017-Sep-17 02:30N 37°54' E 023°33'0 0.0
2017-Sep-17 02:00N 37°54' E 023°33'0 0.0
2017-Sep-17 01:30N 37°54' E 023°33'0 0.0
2017-Sep-17 01:00N 37°54' E 023°33'0 0.0
2017-Sep-17 00:30N 37°54' E 023°33'0 0.1
2017-Sep-17 00:00N 37°54' E 023°33'0 0.0
2017-Sep-16 23:30N 37°54' E 023°33'0 0.0
2017-Sep-16 23:00N 37°54' E 023°33'0 0.0
2017-Sep-16 22:30N 37°54' E 023°33'0 0.0
2017-Sep-16 22:00N 37°54' E 023°33'0 0.0
2017-Sep-16 21:30N 37°54' E 023°33'0 0.0
2017-Sep-16 21:00N 37°54' E 023°33'0 0.0
2017-Sep-16 20:30N 37°54' E 023°33'0 0.0
2017-Sep-16 20:00N 37°54' E 023°33'0 0.0
2017-Sep-16 19:30N 37°54' E 023°33'0 0.0
2017-Sep-16 19:00N 37°54' E 023°33'0 0.0
2017-Sep-16 18:30N 37°54' E 023°33'0 0.0
2017-Sep-16 18:00N 37°54' E 023°33'0 0.0
2017-Sep-16 17:27N 37°54' E 023°33'0 0.0
2017-Sep-16 17:00N 37°54' E 023°33'0 0.0
2017-Sep-16 16:30N 37°54' E 023°33'0 0.0
2017-Sep-16 16:00N 37°54' E 023°33'0 0.0
2017-Sep-16 15:30N 37°54' E 023°33'0 0.2
2017-Sep-16 15:00N 37°54' E 023°33'0 0.0
2017-Sep-16 14:30N 37°54' E 023°33'0 0.1
2017-Sep-16 14:00N 37°54' E 023°33'0 0.0
2017-Sep-16 13:30N 37°54' E 023°33'0 0.1
2017-Sep-16 13:00N 37°54' E 023°33'0 0.0
2017-Sep-16 12:30N 37°54' E 023°33'0 0.0
2017-Sep-16 12:00N 37°54' E 023°33'0 0.1
2017-Sep-16 11:30N 37°54' E 023°33'0 0.0
2017-Sep-16 11:00N 37°54' E 023°33'0 0.0
2017-Sep-16 10:30N 37°54' E 023°33'0 0.0
2017-Sep-16 10:00N 37°54' E 023°33'0 0.0
2017-Sep-16 09:30N 37°54' E 023°33'0 0.1
2017-Sep-16 09:00N 37°54' E 023°33'0 0.1
2017-Sep-16 08:30N 37°54' E 023°33'3 5.9
2017-Sep-16 08:00N 37°53' E 023°30'4 8.4
2017-Sep-16 07:31N 37°52' E 023°25'4 9.0
2017-Sep-16 07:00N 37°52' E 023°19'5 9.0
2017-Sep-16 06:30N 37°53' E 023°13'4 8.8
2017-Sep-16 06:00N 37°54' E 023°08'  

Dump ship's entire track history